Time;durP1;ratioP1;P1;durP2;ratioP2;P2;SDS_P1;SDS_P2;PMS_P1;PMS_P2;Temp;Humidity;BMP_temperature;BMP_pressure;BME280_temperature;BME280_humidity;BME280_pressure;Samples;Min_cycle;Max_cycle;Signal;HPM_P1;HPM_P2
2021/11/24 00:02:24;;;;;;;69.75;20.83;;;;;;;;;;4970240;28;20425;-70
2021/11/24 00:04:49;;;;;;;65.63;20.60;;;;;;;;;;4971906;28;20586;-68
2021/11/24 00:07:14;;;;;;;65.80;19.40;;;;;;;;;;4971035;28;20033;-68
2021/11/24 00:09:39;;;;;;;63.95;20.90;;;;;;;;;;4970755;28;20037;-68
2021/11/24 00:12:05;;;;;;;62.05;19.27;;;;;;;;;;4971005;28;20022;-68
2021/11/24 00:14:31;;;;;;;65.53;21.17;;;;;;;;;;4971811;28;20018;-68
2021/11/24 00:16:56;;;;;;;68.55;20.75;;;;;;;;;;4971293;28;20018;-69
2021/11/24 00:19:21;;;;;;;68.13;20.80;;;;;;;;;;4971525;28;20041;-68
2021/11/24 00:21:46;;;;;;;69.45;21.77;;;;;;;;;;4970764;28;20475;-71
2021/11/24 00:24:12;;;;;;;70.15;22.15;;;;;;;;;;4972067;28;20054;-68
2021/11/24 00:26:37;;;;;;;71.43;21.20;;;;;;;;;;4981671;28;20022;-69
2021/11/24 00:29:02;;;;;;;72.03;22.20;;;;;;;;;;4990555;28;20030;-68
2021/11/24 00:31:28;;;;;;;70.28;22.42;;;;;;;;;;4982412;28;20050;-67
2021/11/24 00:33:53;;;;;;;66.68;21.35;;;;;;;;;;4971750;28;20019;-69
2021/11/24 00:36:18;;;;;;;60.97;19.48;;;;;;;;;;4970624;28;20395;-68
2021/11/24 00:38:43;;;;;;;60.20;21.27;;;;;;;;;;4970649;28;20030;-68
2021/11/24 00:41:08;;;;;;;62.08;20.85;;;;;;;;;;4987186;28;20664;-68
2021/11/24 00:43:34;;;;;;;60.53;19.70;;;;;;;;;;4983012;28;20052;-68
2021/11/24 00:45:59;;;;;;;62.05;20.90;;;;;;;;;;4979901;28;20081;-68
2021/11/24 00:48:24;;;;;;;63.20;19.13;;;;;;;;;;4988615;28;20026;-68
2021/11/24 00:50:49;;;;;;;56.60;20.15;;;;;;;;;;4984101;28;20027;-68
2021/11/24 00:53:15;;;;;;;62.17;21.58;;;;;;;;;;4974250;28;20019;-69
2021/11/24 00:55:40;;;;;;;64.88;20.00;;;;;;;;;;4982985;28;20364;-69
2021/11/24 00:58:05;;;;;;;55.90;19.38;;;;;;;;;;4990683;28;20057;-67
2021/11/24 01:00:30;;;;;;;59.42;19.38;;;;;;;;;;4986786;28;20650;-67
2021/11/24 01:02:56;;;;;;;66.72;20.27;;;;;;;;;;4983913;28;20121;-67
2021/11/24 01:05:21;;;;;;;54.03;20.30;;;;;;;;;;4975594;28;20022;-67
2021/11/24 01:07:46;;;;;;;58.70;20.17;;;;;;;;;;4971834;28;20030;-67
2021/11/24 01:10:12;;;;;;;51.00;18.40;;;;;;;;;;4983087;28;20499;-67
2021/11/24 01:12:39;;;;;;;62.05;20.30;;;;;;;;;;4989645;28;20058;-67
2021/11/24 01:15:04;;;;;;;56.20;20.75;;;;;;;;;;4990587;28;20510;-67
2021/11/24 01:17:30;;;;;;;62.55;21.85;;;;;;;;;;4988906;28;20031;-67
2021/11/24 01:19:55;;;;;;;61.10;20.15;;;;;;;;;;4978388;28;20018;-67
2021/11/24 01:22:20;;;;;;;54.13;19.73;;;;;;;;;;4973775;28;20328;-67
2021/11/24 01:24:45;;;;;;;58.25;21.30;;;;;;;;;;4980244;28;20040;-67
2021/11/24 01:27:10;;;;;;;59.42;21.02;;;;;;;;;;4977244;28;20492;-67
2021/11/24 01:29:36;;;;;;;55.65;20.85;;;;;;;;;;4987190;28;20069;-67
2021/11/24 01:32:01;;;;;;;54.33;18.85;;;;;;;;;;4984440;28;20069;-67
2021/11/24 01:34:26;;;;;;;58.45;20.08;;;;;;;;;;4982006;28;20061;-67
2021/11/24 01:36:51;;;;;;;52.30;18.75;;;;;;;;;;4972313;28;20019;-67
2021/11/24 01:39:17;;;;;;;61.40;21.33;;;;;;;;;;4988552;28;20604;-67
2021/11/24 01:41:42;;;;;;;62.97;20.00;;;;;;;;;;4983448;28;20030;-66
2021/11/24 01:44:17;;;;;;;64.63;20.73;;;;;;;;;;4985616;28;20177;-67
2021/11/24 01:46:42;;;;;;;50.67;19.50;;;;;;;;;;4992656;28;20113;-67
2021/11/24 01:49:07;;;;;;;60.15;20.30;;;;;;;;;;4993818;28;20120;-67
2021/11/24 01:51:33;;;;;;;58.42;19.92;;;;;;;;;;4991241;28;20029;-69
2021/11/24 01:53:58;;;;;;;56.08;20.95;;;;;;;;;;4980636;28;20030;-67
2021/11/24 01:56:24;;;;;;;54.75;19.55;;;;;;;;;;4975052;28;20523;-67
2021/11/24 01:58:49;;;;;;;60.78;20.00;;;;;;;;;;4974099;28;20023;-67
2021/11/24 02:01:14;;;;;;;56.47;20.52;;;;;;;;;;4992398;28;20022;-68
2021/11/24 02:03:39;;;;;;;59.45;20.52;;;;;;;;;;4986918;28;20015;-65
2021/11/24 02:06:05;;;;;;;52.00;19.65;;;;;;;;;;4974518;28;20427;-66
2021/11/24 02:08:30;;;;;;;60.72;19.77;;;;;;;;;;4974354;28;20593;-65
2021/11/24 02:10:56;;;;;;;71.05;19.92;;;;;;;;;;4975208;28;20431;-66
2021/11/24 02:13:22;;;;;;;50.72;18.05;;;;;;;;;;4975532;28;20010;-66
2021/11/24 02:15:47;;;;;;;55.85;18.45;;;;;;;;;;4981965;28;20026;-66
2021/11/24 02:18:12;;;;;;;59.83;20.30;;;;;;;;;;4975385;28;20026;-65
2021/11/24 02:20:39;;;;;;;66.18;22.00;;;;;;;;;;4988752;28;20058;-66
2021/11/24 02:23:05;;;;;;;63.03;22.17;;;;;;;;;;4976121;28;20502;-65
2021/11/24 02:25:30;;;;;;;61.08;19.70;;;;;;;;;;4977097;28;20035;-65
2021/11/24 02:27:55;;;;;;;58.63;20.08;;;;;;;;;;4974731;28;20027;-65
2021/11/24 02:30:20;;;;;;;57.30;20.25;;;;;;;;;;4991314;28;20034;-65
2021/11/24 02:32:46;;;;;;;69.28;20.95;;;;;;;;;;4976509;28;20034;-66
2021/11/24 02:35:11;;;;;;;55.20;20.23;;;;;;;;;;4987560;28;20023;-65
2021/11/24 02:37:36;;;;;;;59.28;21.00;;;;;;;;;;4975170;28;20019;-65
2021/11/24 02:40:02;;;;;;;58.95;18.60;;;;;;;;;;4976581;28;20503;-65
2021/11/24 02:42:27;;;;;;;57.55;20.60;;;;;;;;;;4984800;28;20537;-67
2021/11/24 02:44:53;;;;;;;49.83;18.70;;;;;;;;;;4978252;28;20015;-67
2021/11/24 02:47:21;;;;;;;53.10;19.90;;;;;;;;;;4984582;28;20030;-67
2021/11/24 02:49:47;;;;;;;52.88;19.40;;;;;;;;;;4992985;28;20034;-65
2021/11/24 02:52:13;;;;;;;56.67;19.65;;;;;;;;;;4976826;28;20089;-67
2021/11/24 02:54:39;;;;;;;53.35;18.58;;;;;;;;;;4982803;28;20454;-66
2021/11/24 02:57:05;;;;;;;53.67;18.83;;;;;;;;;;4973188;28;20109;-67
2021/11/24 02:59:30;;;;;;;57.13;20.13;;;;;;;;;;4986221;28;20113;-66
2021/11/24 03:01:56;;;;;;;55.17;18.65;;;;;;;;;;4992098;28;20142;-65
2021/11/24 03:04:30;;;;;;;52.20;17.90;;;;;;;;;;4973590;28;20030;-66
2021/11/24 03:07:00;;;;;;;54.17;18.95;;;;;;;;;;4976007;28;20031;-66
2021/11/24 03:09:25;;;;;;;53.28;19.58;;;;;;;;;;4990810;28;20018;-66
2021/11/24 03:11:51;;;;;;;53.08;19.30;;;;;;;;;;4980307;28;20392;-66
2021/11/24 03:14:16;;;;;;;56.10;19.10;;;;;;;;;;4980028;28;20034;-65
2021/11/24 03:16:41;;;;;;;60.22;19.13;;;;;;;;;;4973004;28;20382;-66
2021/11/24 03:19:07;;;;;;;64.78;19.55;;;;;;;;;;4989335;28;20537;-65
2021/11/24 03:21:32;;;;;;;57.83;19.98;;;;;;;;;;4982826;28;20495;-65
2021/11/24 03:23:57;;;;;;;62.03;19.55;;;;;;;;;;4986988;28;20050;-66
2021/11/24 03:26:22;;;;;;;53.88;18.05;;;;;;;;;;4972823;28;20038;-65
2021/11/24 03:28:48;;;;;;;56.92;19.17;;;;;;;;;;4972926;28;20041;-66
2021/11/24 03:31:13;;;;;;;50.78;18.35;;;;;;;;;;4972866;28;20027;-65
2021/11/24 03:33:38;;;;;;;55.25;18.10;;;;;;;;;;4987935;28;20026;-65
2021/11/24 03:36:04;;;;;;;56.70;18.67;;;;;;;;;;4979930;28;20502;-65
2021/11/24 03:38:29;;;;;;;50.58;18.10;;;;;;;;;;4982424;28;20053;-65
2021/11/24 03:40:54;;;;;;;56.85;19.55;;;;;;;;;;4983096;28;20073;-67
2021/11/24 03:43:19;;;;;;;52.65;18.20;;;;;;;;;;4975082;28;20069;-65
2021/11/24 03:45:45;;;;;;;50.90;17.10;;;;;;;;;;4988204;28;20481;-66
2021/11/24 03:48:10;;;;;;;49.58;19.42;;;;;;;;;;4973256;28;20029;-65
2021/11/24 03:50:35;;;;;;;47.78;17.60;;;;;;;;;;4972175;28;20061;-66
2021/11/24 03:53:01;;;;;;;50.75;18.63;;;;;;;;;;4987430;28;20026;-65
2021/11/24 03:55:26;;;;;;;48.67;16.73;;;;;;;;;;4986619;28;20479;-65
2021/11/24 03:57:51;;;;;;;44.40;17.77;;;;;;;;;;4972230;28;20070;-66
2021/11/24 04:00:18;;;;;;;54.75;18.98;;;;;;;;;;4971863;28;20062;-66
2021/11/24 04:02:44;;;;;;;51.40;17.92;;;;;;;;;;4987646;28;20105;-65
2021/11/24 04:05:09;;;;;;;51.85;19.27;;;;;;;;;;4975429;28;20583;-66
2021/11/24 04:07:35;;;;;;;51.08;16.75;;;;;;;;;;4989790;28;20038;-65
2021/11/24 04:10:00;;;;;;;59.42;18.15;;;;;;;;;;4977965;28;20391;-65
2021/11/24 04:12:25;;;;;;;51.03;17.98;;;;;;;;;;4972067;28;20031;-65
2021/11/24 04:14:51;;;;;;;56.15;19.48;;;;;;;;;;4979230;28;20395;-67
2021/11/24 04:17:16;;;;;;;52.53;18.67;;;;;;;;;;4991556;28;20022;-65
2021/11/24 04:19:41;;;;;;;49.35;18.48;;;;;;;;;;4974405;28;20066;-66
2021/11/24 04:22:07;;;;;;;49.70;18.23;;;;;;;;;;4973791;28;20730;-67
2021/11/24 04:24:32;;;;;;;50.00;16.92;;;;;;;;;;4982706;28;20431;-66
2021/11/24 04:26:58;;;;;;;55.22;18.02;;;;;;;;;;4980948;28;20026;-66
2021/11/24 04:29:23;;;;;;;51.22;17.38;;;;;;;;;;4989578;28;20130;-65
2021/11/24 04:31:48;;;;;;;50.50;16.88;;;;;;;;;;4981038;28;20069;-66
2021/11/24 04:34:13;;;;;;;51.50;17.75;;;;;;;;;;4972923;28;20042;-65
2021/11/24 04:36:38;;;;;;;51.05;18.17;;;;;;;;;;4981868;28;20464;-66
2021/11/24 04:39:04;;;;;;;54.88;18.10;;;;;;;;;;4985826;28;20026;-65
2021/11/24 04:41:29;;;;;;;53.88;18.77;;;;;;;;;;4973842;28;20074;-66
2021/11/24 04:43:54;;;;;;;44.92;16.45;;;;;;;;;;4975833;28;20069;-65
2021/11/24 04:46:20;;;;;;;58.80;20.00;;;;;;;;;;4973860;28;20026;-65
2021/11/24 04:48:45;;;;;;;56.35;18.42;;;;;;;;;;4988245;28;20452;-66
2021/11/24 04:51:11;;;;;;;55.00;19.02;;;;;;;;;;4974497;28;20026;-66
2021/11/24 04:53:36;;;;;;;52.67;18.27;;;;;;;;;;4974385;28;20022;-66
2021/11/24 04:56:01;;;;;;;57.60;19.10;;;;;;;;;;4972587;28;20396;-65
2021/11/24 04:58:27;;;;;;;56.97;18.63;;;;;;;;;;4985255;28;20049;-67
2021/11/24 05:00:52;;;;;;;51.10;17.55;;;;;;;;;;4976848;28;20515;-66
2021/11/24 05:03:18;;;;;;;55.55;18.45;;;;;;;;;;4988067;28;20026;-65
2021/11/24 05:05:43;;;;;;;49.08;17.85;;;;;;;;;;4974400;28;20023;-67
2021/11/24 05:08:08;;;;;;;55.58;19.83;;;;;;;;;;4981778;28;20029;-65
2021/11/24 05:10:34;;;;;;;56.33;18.60;;;;;;;;;;4974218;28;20077;-66
2021/11/24 05:12:59;;;;;;;55.53;18.27;;;;;;;;;;4972800;28;20139;-65
2021/11/24 05:15:32;;;;;;;60.42;19.83;;;;;;;;;;4972809;28;20031;-67
2021/11/24 05:18:04;;;;;;;52.95;19.80;;;;;;;;;;4983149;28;20034;-66
2021/11/24 05:20:31;;;;;;;52.58;19.60;;;;;;;;;;4984989;28;20027;-67
2021/11/24 05:22:59;;;;;;;55.97;19.58;;;;;;;;;;4976420;28;20019;-66
2021/11/24 05:25:25;;;;;;;67.80;22.35;;;;;;;;;;4980812;28;20496;-66
2021/11/24 05:27:50;;;;;;;61.80;18.60;;;;;;;;;;4985976;28;20035;-66
2021/11/24 05:30:15;;;;;;;58.13;20.83;;;;;;;;;;4980858;28;20456;-65
2021/11/24 05:32:40;;;;;;;53.80;19.10;;;;;;;;;;4976191;28;20407;-66
2021/11/24 05:35:06;;;;;;;53.85;18.02;;;;;;;;;;4979377;28;20026;-65
2021/11/24 05:37:31;;;;;;;63.60;20.40;;;;;;;;;;4975034;28;20121;-65
2021/11/24 05:39:56;;;;;;;52.60;17.75;;;;;;;;;;4977599;28;20030;-66
2021/11/24 05:42:22;;;;;;;59.25;18.42;;;;;;;;;;4988837;28;20023;-66
2021/11/24 05:44:49;;;;;;;59.38;19.73;;;;;;;;;;4982956;28;20030;-65
2021/11/24 05:49:58;;;;;;;56.60;18.65;;;;;;;;;;4976795;28;20037;-68
2021/11/24 05:52:24;;;;;;;48.75;18.80;;;;;;;;;;4978251;28;20426;-65
2021/11/24 05:54:49;;;;;;;53.50;19.70;;;;;;;;;;4978658;28;20095;-66
2021/11/24 05:57:16;;;;;;;56.33;19.20;;;;;;;;;;4985818;28;20089;-67
2021/11/24 05:59:41;;;;;;;51.40;18.30;;;;;;;;;;4983063;28;20433;-66
2021/11/24 06:02:06;;;;;;;55.17;18.67;;;;;;;;;;4984734;28;20051;-67
2021/11/24 06:04:31;;;;;;;53.08;18.98;;;;;;;;;;4993123;28;20269;-68
2021/11/24 06:06:57;;;;;;;57.95;18.40;;;;;;;;;;4978457;28;20069;-68
2021/11/24 06:09:22;;;;;;;51.03;18.95;;;;;;;;;;4984423;28;20509;-67
2021/11/24 06:11:47;;;;;;;54.05;17.98;;;;;;;;;;4990866;28;20038;-66
2021/11/24 06:14:12;;;;;;;51.80;19.00;;;;;;;;;;4975004;28;20031;-68
2021/11/24 06:16:37;;;;;;;55.00;18.65;;;;;;;;;;4973734;28;20793;-67
2021/11/24 06:19:03;;;;;;;48.90;18.33;;;;;;;;;;4974329;28;20019;-67
2021/11/24 06:21:28;;;;;;;49.92;18.33;;;;;;;;;;4973736;28;20357;-67
2021/11/24 06:23:53;;;;;;;50.33;18.75;;;;;;;;;;4977057;28;20468;-67
2021/11/24 06:26:21;;;;;;;60.85;20.77;;;;;;;;;;4974952;28;20019;-66
2021/11/24 06:28:46;;;;;;;50.33;18.42;;;;;;;;;;4981068;28;20044;-67
2021/11/24 06:31:11;;;;;;;53.20;17.88;;;;;;;;;;4975758;28;20103;-67
2021/11/24 06:33:37;;;;;;;50.30;17.73;;;;;;;;;;4974875;28;20101;-67
2021/11/24 06:36:02;;;;;;;58.95;18.95;;;;;;;;;;4979728;28;20448;-68
2021/11/24 06:38:27;;;;;;;54.70;18.77;;;;;;;;;;4989174;28;20022;-67
2021/11/24 06:40:52;;;;;;;46.83;17.48;;;;;;;;;;4988601;28;20025;-67
2021/11/24 06:43:17;;;;;;;48.55;16.95;;;;;;;;;;4979716;28;20105;-66
2021/11/24 06:45:44;;;;;;;49.75;17.55;;;;;;;;;;4969052;28;20483;-67
2021/11/24 06:48:09;;;;;;;52.10;17.42;;;;;;;;;;4971552;28;20128;-68
2021/11/24 06:50:35;;;;;;;49.97;18.75;;;;;;;;;;4970937;28;20069;-66
2021/11/24 06:53:00;;;;;;;51.50;18.13;;;;;;;;;;4970927;28;20459;-68
2021/11/24 06:55:25;;;;;;;59.20;18.77;;;;;;;;;;4970928;28;20023;-68
2021/11/24 06:57:51;;;;;;;53.33;18.77;;;;;;;;;;4970825;28;20031;-67
2021/11/24 07:00:16;;;;;;;50.63;15.85;;;;;;;;;;4971977;28;20019;-68
2021/11/24 07:02:41;;;;;;;59.20;18.88;;;;;;;;;;4969303;28;20050;-68
2021/11/24 07:05:07;;;;;;;46.25;18.10;;;;;;;;;;4974399;28;20023;-68
2021/11/24 07:07:32;;;;;;;59.25;19.45;;;;;;;;;;4971035;28;20038;-67
2021/11/24 07:09:57;;;;;;;56.30;18.65;;;;;;;;;;4976656;28;20022;-68
2021/11/24 07:12:25;;;;;;;47.97;17.80;;;;;;;;;;4976668;28;20039;-68
2021/11/24 07:14:51;;;;;;;54.42;18.27;;;;;;;;;;4971754;28;20022;-68
2021/11/24 07:17:17;;;;;;;51.08;18.00;;;;;;;;;;4972791;28;20050;-68
2021/11/24 07:19:42;;;;;;;58.80;19.98;;;;;;;;;;4972818;28;20022;-68
2021/11/24 07:22:07;;;;;;;52.15;18.63;;;;;;;;;;4972822;28;20065;-68
2021/11/24 07:24:32;;;;;;;48.92;16.25;;;;;;;;;;4977131;28;20038;-68
2021/11/24 07:26:57;;;;;;;58.92;19.67;;;;;;;;;;4972712;28;20080;-68
2021/11/24 07:29:23;;;;;;;52.10;18.27;;;;;;;;;;4976462;28;20094;-68
2021/11/24 07:31:48;;;;;;;51.22;19.45;;;;;;;;;;4972030;28;20018;-67
2021/11/24 07:34:14;;;;;;;59.50;19.05;;;;;;;;;;4976559;28;20177;-68
2021/11/24 07:36:39;;;;;;;60.95;20.52;;;;;;;;;;4972116;28;20034;-68
2021/11/24 07:39:05;;;;;;;63.95;19.23;;;;;;;;;;4974434;28;20022;-68
2021/11/24 07:41:30;;;;;;;52.58;17.55;;;;;;;;;;4972620;28;20029;-68
2021/11/24 07:43:55;;;;;;;51.28;17.55;;;;;;;;;;4978290;28;20018;-68
2021/11/24 07:46:20;;;;;;;58.97;18.25;;;;;;;;;;4979071;28;20090;-66
2021/11/24 07:48:45;;;;;;;54.75;17.73;;;;;;;;;;4972687;28;20046;-68
2021/11/24 07:51:16;;;;;;;62.42;17.63;;;;;;;;;;4972306;28;20376;-68
2021/11/24 07:53:41;;;;;;;62.88;21.38;;;;;;;;;;4978101;28;20030;-68
2021/11/24 07:56:07;;;;;;;66.82;20.55;;;;;;;;;;4990411;28;20076;-67
2021/11/24 07:58:32;;;;;;;59.78;19.23;;;;;;;;;;4979642;28;20022;-68
2021/11/24 08:00:57;;;;;;;62.85;18.90;;;;;;;;;;4977865;28;20411;-68
2021/11/24 08:03:22;;;;;;;49.38;15.63;;;;;;;;;;4976312;28;20033;-68
2021/11/24 08:05:47;;;;;;;50.40;17.83;;;;;;;;;;4975269;28;20101;-68
2021/11/24 08:08:13;;;;;;;50.03;15.38;;;;;;;;;;4972297;28;20038;-68
2021/11/24 08:10:38;;;;;;;63.03;20.73;;;;;;;;;;4981442;28;20058;-68
2021/11/24 08:13:03;;;;;;;55.33;18.83;;;;;;;;;;4978303;28;20047;-68
2021/11/24 08:15:29;;;;;;;62.45;21.40;;;;;;;;;;4971259;28;20033;-67
2021/11/24 08:17:54;;;;;;;55.38;19.48;;;;;;;;;;4987333;28;20015;-68
2021/11/24 08:20:19;;;;;;;56.07;17.13;;;;;;;;;;4972452;28;20015;-68
2021/11/24 08:23:06;;;;;;;54.50;18.30;;;;;;;;;;4980949;28;20298;-68
2021/11/24 08:25:31;;;;;;;61.10;19.25;;;;;;;;;;4987757;28;20029;-68
2021/11/24 08:27:57;;;;;;;49.95;17.77;;;;;;;;;;4981424;28;20026;-68
2021/11/24 08:30:22;;;;;;;60.67;20.60;;;;;;;;;;4978015;28;20034;-65
2021/11/24 08:32:48;;;;;;;62.20;19.50;;;;;;;;;;4976044;28;20101;-68
2021/11/24 08:35:15;;;;;;;57.33;18.27;;;;;;;;;;4974296;28;20030;-68
2021/11/24 08:37:40;;;;;;;61.58;20.85;;;;;;;;;;4971804;28;20638;-67
2021/11/24 08:40:06;;;;;;;59.25;19.60;;;;;;;;;;4983919;28;20063;-68
2021/11/24 08:42:31;;;;;;;61.05;17.67;;;;;;;;;;4972335;28;20025;-68
2021/11/24 08:44:56;;;;;;;67.55;19.50;;;;;;;;;;4969955;28;20479;-68
2021/11/24 08:47:21;;;;;;;58.22;17.40;;;;;;;;;;4970444;28;20046;-67
2021/11/24 08:49:47;;;;;;;68.93;18.83;;;;;;;;;;4972593;28;20030;-68
2021/11/24 08:52:12;;;;;;;70.38;21.65;;;;;;;;;;4975669;28;20023;-68
2021/11/24 08:54:39;;;;;;;76.13;21.17;;;;;;;;;;4985711;28;20523;-68
2021/11/24 08:57:04;;;;;;;72.35;20.60;;;;;;;;;;4975571;28;20018;-68
2021/11/24 08:59:30;;;;;;;69.57;19.17;;;;;;;;;;4994535;28;20101;-68
2021/11/24 09:01:55;;;;;;;66.43;19.52;;;;;;;;;;4981590;28;20027;-68
2021/11/24 09:04:21;;;;;;;61.95;18.05;;;;;;;;;;4979192;28;20089;-69
2021/11/24 09:06:46;;;;;;;65.25;20.52;;;;;;;;;;4975200;28;20022;-68
2021/11/24 09:09:11;;;;;;;76.97;23.00;;;;;;;;;;4978431;28;20031;-67
2021/11/24 09:11:36;;;;;;;68.50;22.57;;;;;;;;;;4973459;28;20306;-68
2021/11/24 09:14:02;;;;;;;63.23;19.83;;;;;;;;;;4982481;28;20270;-67
2021/11/24 09:16:27;;;;;;;64.18;18.98;;;;;;;;;;4987338;28;20312;-67
2021/11/24 09:18:52;;;;;;;70.55;21.35;;;;;;;;;;4975467;28;20622;-67
2021/11/24 09:21:19;;;;;;;70.63;20.27;;;;;;;;;;4975449;28;20014;-67
2021/11/24 09:23:45;;;;;;;62.38;17.73;;;;;;;;;;4991966;28;20015;-67
2021/11/24 09:26:40;;;;;;;56.30;19.10;;;;;;;;;;4977731;28;20030;-67
2021/11/24 09:28:56;;;;;;;60.25;18.25;;;;;;;;;;4973625;28;20065;-67
2021/11/24 09:31:21;;;;;;;59.20;18.00;;;;;;;;;;4973511;28;20492;-67
2021/11/24 09:33:47;;;;;;;60.70;20.63;;;;;;;;;;4987964;28;20027;-67
2021/11/24 09:36:12;;;;;;;69.57;19.38;;;;;;;;;;4974564;28;20015;-67
2021/11/24 09:38:38;;;;;;;62.00;20.48;;;;;;;;;;4974327;28;20081;-68
2021/11/24 09:41:05;;;;;;;64.05;18.90;;;;;;;;;;4974544;28;20126;-67
2021/11/24 09:43:33;;;;;;;53.58;17.90;;;;;;;;;;4974621;28;20019;-68
2021/11/24 09:45:58;;;;;;;65.63;19.67;;;;;;;;;;4973639;28;20031;-67
2021/11/24 09:48:24;;;;;;;64.72;19.02;;;;;;;;;;4974785;28;20071;-67
2021/11/24 09:50:49;;;;;;;66.82;19.85;;;;;;;;;;4974216;28;20026;-67
2021/11/24 09:53:15;;;;;;;60.70;20.45;;;;;;;;;;4974686;28;20117;-66
2021/11/24 09:55:41;;;;;;;68.85;20.42;;;;;;;;;;4978085;28;20026;-67
2021/11/24 09:58:07;;;;;;;68.75;19.00;;;;;;;;;;4974496;28;20685;-67
2021/11/24 10:00:33;;;;;;;68.90;20.55;;;;;;;;;;4973733;28;20435;-67
2021/11/24 10:02:58;;;;;;;62.08;18.60;;;;;;;;;;4972499;28;20023;-68
2021/11/24 10:05:24;;;;;;;71.03;22.45;;;;;;;;;;4973468;28;20030;-68
2021/11/24 10:07:50;;;;;;;61.30;18.55;;;;;;;;;;4986262;28;20027;-68
2021/11/24 10:10:15;;;;;;;57.33;18.17;;;;;;;;;;4973807;28;20105;-67
2021/11/24 10:12:40;;;;;;;62.95;18.15;;;;;;;;;;4981866;28;20118;-67
2021/11/24 10:15:11;;;;;;;64.13;18.33;;;;;;;;;;4973853;28;20027;-67
2021/11/24 10:17:36;;;;;;;67.82;20.02;;;;;;;;;;4990525;28;20023;-67
2021/11/24 10:20:05;;;;;;;48.05;15.02;;;;;;;;;;4979063;28;20021;-66
2021/11/24 10:22:32;;;;;;;60.28;18.10;;;;;;;;;;4990066;28;20023;-67
2021/11/24 10:25:19;;;;;;;54.08;18.67;;;;;;;;;;4974082;28;20038;-67
2021/11/24 10:27:47;;;;;;;57.90;18.52;;;;;;;;;;4973457;28;20110;-67
2021/11/24 10:30:21;;;;;;;49.35;15.70;;;;;;;;;;4980044;28;20262;-67
2021/11/24 10:32:46;;;;;;;58.53;17.33;;;;;;;;;;4991577;28;20498;-66
2021/11/24 10:35:12;;;;;;;59.20;20.38;;;;;;;;;;4992645;28;20113;-68
2021/11/24 10:37:39;;;;;;;48.83;17.05;;;;;;;;;;4982433;28;20110;-67
2021/11/24 10:40:05;;;;;;;54.15;17.83;;;;;;;;;;4976737;28;20298;-67
2021/11/24 10:42:38;;;;;;;62.20;21.23;;;;;;;;;;4965341;28;20027;-67
2021/11/24 10:45:07;;;;;;;63.67;20.50;;;;;;;;;;4988788;28;20030;-67
2021/11/24 10:47:33;;;;;;;62.25;20.35;;;;;;;;;;4987227;28;20033;-67
2021/11/24 10:50:03;;;;;;;56.67;19.33;;;;;;;;;;4984964;28;20030;-68
2021/11/24 10:52:33;;;;;;;70.65;20.80;;;;;;;;;;4974921;28;20506;-68
2021/11/24 10:55:04;;;;;;;54.70;18.23;;;;;;;;;;4975963;28;20034;-68
2021/11/24 10:57:30;;;;;;;49.88;18.02;;;;;;;;;;4976144;28;20019;-68
2021/11/24 11:00:00;;;;;;;49.47;18.27;;;;;;;;;;4973359;28;20018;-67
2021/11/24 11:02:35;;;;;;;46.45;14.60;;;;;;;;;;4972407;28;20022;-67
2021/11/24 11:05:10;;;;;;;38.80;13.98;;;;;;;;;;4973453;28;20054;-68
2021/11/24 11:07:43;;;;;;;40.72;13.40;;;;;;;;;;4989213;28;20030;-66
2021/11/24 11:10:13;;;;;;;39.85;14.73;;;;;;;;;;4973660;28;20061;-68
2021/11/24 11:12:40;;;;;;;34.60;14.60;;;;;;;;;;4992629;28;20065;-68
2021/11/24 11:15:12;;;;;;;31.75;13.98;;;;;;;;;;4975044;28;20038;-68
2021/11/24 11:17:52;;;;;;;26.60;11.27;;;;;;;;;;4971950;28;20030;-68
2021/11/24 11:20:17;;;;;;;26.83;10.23;;;;;;;;;;4980361;28;20022;-68
2021/11/24 11:22:43;;;;;;;25.98;9.18;;;;;;;;;;4986213;28;20022;-68
2021/11/24 11:25:08;;;;;;;25.33;10.30;;;;;;;;;;4986390;28;20027;-67
2021/11/24 11:27:34;;;;;;;21.25;7.00;;;;;;;;;;4991130;28;20077;-68
2021/11/24 11:30:00;;;;;;;23.83;9.93;;;;;;;;;;4976097;28;20025;-67
2021/11/24 11:32:26;;;;;;;23.83;8.35;;;;;;;;;;4953437;29;20046;-68
2021/11/24 11:34:51;;;;;;;22.42;9.48;;;;;;;;;;4967210;28;20488;-68
2021/11/24 11:37:17;;;;;;;19.45;8.27;;;;;;;;;;4972314;28;20019;-67
2021/11/24 11:39:42;;;;;;;21.58;9.50;;;;;;;;;;4971945;28;20027;-67
2021/11/24 11:42:10;;;;;;;18.60;8.38;;;;;;;;;;4986041;28;20053;-67
2021/11/24 11:44:35;;;;;;;14.95;7.40;;;;;;;;;;4981817;28;20069;-68
2021/11/24 11:47:00;;;;;;;9.85;4.55;;;;;;;;;;4971354;28;20054;-67
2021/11/24 11:49:28;;;;;;;16.13;7.30;;;;;;;;;;4972875;28;20125;-68
2021/11/24 11:52:02;;;;;;;22.27;8.57;;;;;;;;;;4972107;28;20034;-67
2021/11/24 11:54:32;;;;;;;17.45;7.07;;;;;;;;;;4977278;28;20121;-67
2021/11/24 11:57:00;;;;;;;12.45;3.95;;;;;;;;;;4979804;28;20057;-67
2021/11/24 11:59:37;;;;;;;15.60;4.82;;;;;;;;;;4990394;28;20520;-68
2021/11/24 12:02:05;;;;;;;16.27;6.35;;;;;;;;;;4970857;28;20022;-68
2021/11/24 12:04:42;;;;;;;11.60;5.60;;;;;;;;;;4971999;28;20510;-67
2021/11/24 12:07:08;;;;;;;15.27;5.30;;;;;;;;;;4966080;28;20050;-67
2021/11/24 12:09:39;;;;;;;9.00;4.10;;;;;;;;;;4988549;28;20026;-67
2021/11/24 12:14:38;;;;;;;10.23;5.30;;;;;;;;;;4972267;28;20014;-68
2021/11/24 12:17:22;;;;;;;12.20;4.40;;;;;;;;;;4982396;28;20388;-68
2021/11/24 12:19:47;;;;;;;11.65;5.63;;;;;;;;;;4977294;28;20030;-68
2021/11/24 12:22:12;;;;;;;11.27;4.90;;;;;;;;;;4971443;28;20074;-68
2021/11/24 12:24:38;;;;;;;6.65;3.35;;;;;;;;;;4982565;28;20065;-68
2021/11/24 12:27:04;;;;;;;4.65;2.40;;;;;;;;;;4981906;28;20033;-67
2021/11/24 12:29:46;;;;;;;4.63;1.90;;;;;;;;;;4971376;28;20031;-68
2021/11/24 12:32:11;;;;;;;5.18;2.10;;;;;;;;;;4971616;28;20565;-68
2021/11/24 12:34:51;;;;;;;7.25;2.00;;;;;;;;;;4970992;28;20114;-67
2021/11/24 12:37:20;;;;;;;10.17;2.90;;;;;;;;;;4978405;28;20045;-67
2021/11/24 12:39:45;;;;;;;3.63;1.48;;;;;;;;;;4972217;28;20266;-68
2021/11/24 12:42:11;;;;;;;2.95;1.38;;;;;;;;;;4970676;28;20110;-67
2021/11/24 12:44:36;;;;;;;2.53;0.88;;;;;;;;;;4981131;28;20088;-68
2021/11/24 12:47:06;;;;;;;5.03;1.92;;;;;;;;;;4974358;28;20548;-67
2021/11/24 12:49:31;;;;;;;2.80;1.70;;;;;;;;;;4974616;28;20018;-67
2021/11/24 12:51:58;;;;;;;7.13;1.58;;;;;;;;;;4982941;28;20023;-67
2021/11/24 12:54:30;;;;;;;4.43;1.75;;;;;;;;;;4971725;28;20428;-67
2021/11/24 12:57:00;;;;;;;2.83;1.50;;;;;;;;;;4971581;28;20026;-67
2021/11/24 12:59:26;;;;;;;;;;;;;;;;;;4982286;28;20021;-67
2021/11/24 13:01:53;;;;;;;6.43;1.92;;;;;;;;;;4974218;28;20359;-67
2021/11/24 13:04:20;;;;;;;3.33;1.67;;;;;;;;;;4990428;28;20077;-67
2021/11/24 13:06:49;;;;;;;3.15;1.55;;;;;;;;;;4985472;28;20153;-67
2021/11/24 13:09:16;;;;;;;3.40;1.73;;;;;;;;;;4972557;28;20054;-67
2021/11/24 13:11:42;;;;;;;3.78;1.80;;;;;;;;;;4976084;28;20033;-67
2021/11/24 13:14:07;;;;;;;7.10;2.22;;;;;;;;;;4985162;28;20293;-68
2021/11/24 13:16:32;;;;;;;5.50;2.15;;;;;;;;;;4972903;28;20369;-67
2021/11/24 13:18:58;;;;;;;4.70;1.75;;;;;;;;;;4972611;28;20056;-68
2021/11/24 13:21:24;;;;;;;2.78;1.25;;;;;;;;;;4969859;28;20058;-68
2021/11/24 13:23:59;;;;;;;4.50;1.98;;;;;;;;;;4983154;28;20086;-67
2021/11/24 13:26:24;;;;;;;6.53;2.55;;;;;;;;;;4971974;28;20081;-67
2021/11/24 13:28:53;;;;;;;6.53;2.58;;;;;;;;;;4972456;28;20440;-67
2021/11/24 13:31:18;;;;;;;4.75;2.33;;;;;;;;;;4971196;28;20019;-67
2021/11/24 13:33:43;;;;;;;5.53;2.13;;;;;;;;;;4973801;28;20114;-67
2021/11/24 13:36:10;;;;;;;6.20;1.83;;;;;;;;;;4979952;28;20079;-67
2021/11/24 13:38:37;;;;;;;4.93;2.28;;;;;;;;;;4973667;28;20121;-67
2021/11/24 13:41:12;;;;;;;4.78;1.90;;;;;;;;;;4974915;28;20407;-67
2021/11/24 13:43:39;;;;;;;3.97;1.92;;;;;;;;;;4982576;28;20022;-67
2021/11/24 13:46:10;;;;;;;4.65;1.70;;;;;;;;;;4978191;28;20092;-68
2021/11/24 13:48:35;;;;;;;5.28;2.10;;;;;;;;;;4978756;28;20073;-67
2021/11/24 13:51:02;;;;;;;3.20;1.67;;;;;;;;;;4973768;28;20031;-67
2021/11/24 13:53:29;;;;;;;7.53;2.20;;;;;;;;;;4973965;28;20031;-67
2021/11/24 13:56:09;;;;;;;5.22;1.95;;;;;;;;;;4977147;28;20062;-67
2021/11/24 13:58:34;;;;;;;3.40;1.90;;;;;;;;;;4974818;28;20038;-67
2021/11/24 14:01:13;;;;;;;4.07;2.15;;;;;;;;;;4973863;28;20039;-68
2021/11/24 14:03:38;;;;;;;7.25;2.42;;;;;;;;;;4972764;28;20015;-68
2021/11/24 14:06:03;;;;;;;3.88;2.17;;;;;;;;;;4983226;28;20030;-67
2021/11/24 14:08:38;;;;;;;3.22;1.70;;;;;;;;;;4974269;28;20019;-68
2021/11/24 14:11:03;;;;;;;3.47;1.70;;;;;;;;;;4987363;28;20030;-68
2021/11/24 14:13:32;;;;;;;7.68;3.42;;;;;;;;;;4974972;28;20113;-68
2021/11/24 14:16:07;;;;;;;5.68;1.50;;;;;;;;;;4984406;28;20499;-67
2021/11/24 14:18:32;;;;;;;5.05;1.92;;;;;;;;;;4985814;28;20475;-68
2021/11/24 14:20:57;;;;;;;2.63;1.48;;;;;;;;;;4981905;28;20034;-68
2021/11/24 14:23:24;;;;;;;3.53;1.58;;;;;;;;;;4974126;28;20023;-68